Time;durP1;ratioP1;P1;durP2;ratioP2;P2;SDS_P1;SDS_P2;PMS_P1;PMS_P2;Temp;Humidity;BMP_temperature;BMP_pressure;BME280_temperature;BME280_humidity;BME280_pressure;Samples;Min_cycle;Max_cycle;Signal;HPM_P1;HPM_P2
2021/08/27 00:01:14;;;;;;;2.53;2.07;;;;;;;;;;6274501;22;20141;-61
2021/08/27 00:03:40;;;;;;;5.27;2.30;;;;;;;;;;6274293;22;20164;-60
2021/08/27 00:06:06;;;;;;;2.00;1.90;;;13.50;99.90;;;;;;6275051;22;20134;-59
2021/08/27 00:08:32;;;;;;;3.67;2.40;;;14.10;99.90;;;;;;6275850;22;20178;-61
2021/08/27 00:10:57;;;;;;;6.40;2.17;;;13.60;99.90;;;;;;6277269;22;20229;-59
2021/08/27 00:13:23;;;;;;;2.47;2.07;;;13.60;99.90;;;;;;6276269;22;20171;-59
2021/08/27 00:15:49;;;;;;;2.63;2.27;;;14.10;99.90;;;;;;6274457;22;20150;-61
2021/08/27 00:18:14;;;;;;;2.30;2.10;;;13.10;99.90;;;;;;6275055;22;20301;-57
2021/08/27 00:20:40;;;;;;;2.13;1.97;;;13.70;99.90;;;;;;6274442;22;20142;-60
2021/08/27 00:23:06;;;;;;;2.17;2.00;;;;;;;;;;6274847;22;20186;-56
2021/08/27 00:25:32;;;;;;;2.53;1.90;;;;;;;;;;6274991;22;20197;-58
2021/08/27 00:27:57;;;;;;;2.40;1.80;;;13.30;99.90;;;;;;6275307;22;20213;-61
2021/08/27 00:30:23;;;;;;;1.63;1.53;;;13.40;99.90;;;;;;6247917;22;20153;-61
2021/08/27 00:32:49;;;;;;;3.57;1.83;;;13.40;99.90;;;;;;6249282;22;20707;-61
2021/08/27 00:35:14;;;;;;;1.97;1.50;;;13.30;99.90;;;;;;6274805;22;20498;-59
2021/08/27 00:37:40;;;;;;;1.60;1.50;;;13.40;99.90;;;;;;6275032;22;20624;-60
2021/08/27 00:40:06;;;;;;;1.57;1.47;;;13.50;99.90;;;;;;6275542;22;20145;-54
2021/08/27 00:42:32;;;;;;;4.20;1.87;;;13.70;99.90;;;;;;6276212;22;20246;-62
2021/08/27 00:44:58;;;;;;;2.03;1.60;;;14.10;99.90;;;;;;6275718;22;20170;-58
2021/08/27 00:47:23;;;;;;;1.23;1.20;;;13.90;99.90;;;;;;6274907;22;20522;-60
2021/08/27 00:49:49;;;;;;;1.47;1.37;;;14.10;99.90;;;;;;6275341;22;20153;-59
2021/08/27 00:52:15;;;;;;;2.33;1.40;;;14.10;99.90;;;;;;6275056;22;20181;-56
2021/08/27 00:54:51;;;;;;;3.37;1.50;;;14.40;99.90;;;;;;6274436;22;20158;-60
2021/08/27 00:57:17;;;;;;;1.73;1.20;;;14.20;99.90;;;;;;6275156;22;20143;-56
2021/08/27 00:59:43;;;;;;;2.37;1.50;;;13.60;99.90;;;;;;6272737;22;20155;-60
2021/08/27 01:02:09;;;;;;;2.70;1.50;;;13.70;99.90;;;;;;6274850;22;20197;-59
2021/08/27 01:04:40;;;;;;;4.00;1.43;;;13.70;99.90;;;;;;6274430;22;20216;-61
2021/08/27 01:07:11;;;;;;;1.80;1.33;;;13.50;99.90;;;;;;6275007;22;20525;-58
2021/08/27 01:09:48;;;;;;;2.00;1.80;;;13.40;99.90;;;;;;6274393;22;20614;-60
2021/08/27 01:12:37;;;;;;;1.93;1.53;;;13.60;99.90;;;;;;6274611;22;20142;-58
2021/08/27 01:15:14;;;;;;;2.57;1.70;;;13.40;99.90;;;;;;6274396;22;20151;-57
2021/08/27 01:17:52;;;;;;;7.07;1.80;;;13.50;99.90;;;;;;6274727;22;20140;-59
2021/08/27 01:20:32;;;;;;;2.03;1.70;;;13.20;99.90;;;;;;6274499;22;20148;-61
2021/08/27 01:23:31;;;;;;;4.73;2.03;;;13.50;99.90;;;;;;6274119;22;20265;-59
2021/08/27 01:25:58;;;;;;;2.90;1.70;;;13.50;99.90;;;;;;6273044;22;20192;-60
2021/08/27 01:28:25;;;;;;;1.70;1.60;;;13.40;99.90;;;;;;6274638;22;20151;-56
2021/08/27 01:31:09;;;;;;;2.20;2.10;;;14.00;99.90;;;;;;6274430;22;20148;-61
2021/08/27 01:33:44;;;;;;;2.37;1.80;;;13.00;99.90;;;;;;6274243;22;20169;-58
2021/08/27 01:36:11;;;;;;;2.00;1.90;;;13.40;99.90;;;;;;6274407;22;20557;-59
2021/08/27 01:38:39;;;;;;;1.70;1.60;;;13.40;99.90;;;;;;6274198;22;20147;-58
2021/08/27 01:41:08;;;;;;;1.60;1.50;;;12.90;99.90;;;;;;6274464;22;20178;-61
2021/08/27 01:43:35;;;;;;;2.00;1.80;;;15.80;99.90;;;;;;6274168;22;20522;-61
2021/08/27 01:46:02;;;;;;;2.37;2.00;;;13.30;99.90;;;;;;6274239;22;20231;-61
2021/08/27 01:48:32;;;;;;;1.90;1.73;;;13.30;99.90;;;;;;6246786;22;20146;-59
2021/08/27 01:50:57;;;;;;;1.90;1.70;;;13.10;99.90;;;;;;6274046;22;20159;-61
2021/08/27 01:53:25;;;;;;;3.37;1.93;;;13.10;99.90;;;;;;6273796;22;20543;-59
2021/08/27 01:55:51;;;;;;;2.37;1.93;;;13.10;99.90;;;;;;6274020;22;20635;-59
2021/08/27 01:58:17;;;;;;;2.97;2.10;;;13.10;99.90;;;;;;6273996;22;20157;-55
2021/08/27 02:00:43;;;;;;;3.77;1.90;;;13.10;99.90;;;;;;6272945;22;20151;-56
2021/08/27 02:03:10;;;;;;;2.37;2.03;;;13.10;99.90;;;;;;6246883;22;20494;-59
2021/08/27 02:05:37;;;;;;;2.20;2.00;;;13.00;99.90;;;;;;6274157;22;20151;-58
2021/08/27 02:08:03;;;;;;;1.90;1.80;;;12.80;99.90;;;;;;6273842;22;20203;-59
2021/08/27 02:10:30;;;;;;;3.83;2.30;;;13.20;99.90;;;;;;6273852;22;20150;-59
2021/08/27 02:12:56;;;;;;;3.13;2.03;;;13.10;99.90;;;;;;6273834;22;20192;-59
2021/08/27 02:15:23;;;;;;;3.00;2.40;;;15.00;99.90;;;;;;6273787;22;20229;-58
2021/08/27 02:17:50;;;;;;;2.10;2.00;;;12.70;99.90;;;;;;6274111;22;20169;-61
2021/08/27 02:20:16;;;;;;;4.47;2.10;;;12.70;99.90;;;;;;6273386;22;20195;-61
2021/08/27 02:22:47;;;;;;;2.40;2.13;;;12.70;99.90;;;;;;6273440;22;20186;-61
2021/08/27 02:25:18;;;;;;;3.53;2.43;;;12.70;99.90;;;;;;6273470;22;20134;-60
2021/08/27 02:27:45;;;;;;;2.30;2.10;;;12.80;99.90;;;;;;6273593;22;20142;-58
2021/08/27 02:30:13;;;;;;;2.83;2.20;;;13.40;99.90;;;;;;6273226;22;20242;-60
2021/08/27 02:32:39;;;;;;;2.30;2.10;;;12.90;99.90;;;;;;6273751;22;20740;-60
2021/08/27 02:35:06;;;;;;;2.70;2.33;;;12.90;99.90;;;;;;6273266;22;20174;-60
2021/08/27 02:37:37;;;;;;;2.63;2.37;;;12.80;99.90;;;;;;6273543;22;20155;-57
2021/08/27 02:40:03;;;;;;;2.80;2.13;;;12.90;99.90;;;;;;6273163;22;20130;-58
2021/08/27 02:42:32;;;;;;;3.20;2.20;;;12.80;99.90;;;;;;6272904;22;20176;-59
2021/08/27 02:45:00;;;;;;;2.47;2.23;;;12.80;99.90;;;;;;6272184;22;20181;-57
2021/08/27 02:47:26;;;;;;;3.20;2.27;;;12.80;99.90;;;;;;6272336;22;20611;-55
2021/08/27 02:49:52;;;;;;;2.60;2.40;;;12.80;99.90;;;;;;6271897;22;20166;-59
2021/08/27 02:52:39;;;;;;;2.67;2.47;;;12.70;99.90;;;;;;6272010;22;20154;-61
2021/08/27 02:55:16;;;;;;;2.23;2.03;;;12.70;99.90;;;;;;6272235;22;20165;-59
2021/08/27 02:57:45;;;;;;;3.27;2.40;;;12.70;99.90;;;;;;6272099;22;20134;-58
2021/08/27 03:00:12;;;;;;;2.50;2.20;;;12.70;99.90;;;;;;6271847;22;20169;-61
2021/08/27 03:02:38;;;;;;;2.93;2.07;;;12.70;99.90;;;;;;6271820;22;20174;-56
2021/08/27 03:05:09;;;;;;;2.13;1.93;;;12.60;99.90;;;;;;6272230;22;20150;-61
2021/08/27 03:07:39;;;;;;;2.50;2.30;;;12.70;99.90;;;;;;6271740;22;20462;-61
2021/08/27 03:10:25;;;;;;;2.37;2.17;;;12.70;99.90;;;;;;6272550;22;20213;-61
2021/08/27 03:13:07;;;;;;;2.30;2.10;;;12.80;99.90;;;;;;6273213;22;20192;-59
2021/08/27 03:15:54;;;;;;;4.03;2.50;;;12.90;99.90;;;;;;6273957;22;20136;-61
2021/08/27 03:18:30;;;;;;;2.97;2.37;;;13.10;99.90;;;;;;6273589;22;20179;-61
2021/08/27 03:21:01;;;;;;;2.40;2.20;;;13.00;99.90;;;;;;6273514;22;20146;-59
2021/08/27 03:23:33;;;;;;;2.37;2.20;;;13.00;99.90;;;;;;6273332;22;20750;-59
2021/08/27 03:26:03;;;;;;;2.80;2.50;;;13.00;99.90;;;;;;6273295;22;20150;-60
2021/08/27 03:28:39;;;;;;;2.40;2.10;;;13.10;99.90;;;;;;6273056;22;20154;-58
2021/08/27 03:31:07;;;;;;;3.37;2.13;;;13.20;99.90;;;;;;6273522;22;20464;-60
2021/08/27 03:33:33;;;;;;;3.03;2.10;;;13.20;99.90;;;;;;6273243;22;20162;-61
2021/08/27 03:36:00;;;;;;;2.47;2.20;;;13.10;99.90;;;;;;6246325;22;20150;-56
2021/08/27 03:38:27;;;;;;;2.97;2.60;;;13.20;99.90;;;;;;6272923;22;20146;-59
2021/08/27 03:40:54;;;;;;;2.90;2.40;;;13.40;99.90;;;;;;6273250;22;20146;-59
2021/08/27 03:43:21;;;;;;;2.47;2.23;;;13.20;99.90;;;;;;6227785;22;1057540;-59
2021/08/27 03:45:49;;;;;;;7.67;2.60;;;13.10;99.90;;;;;;6275050;22;20185;-57
2021/08/27 03:48:15;;;;;;;2.60;2.40;;;13.00;99.90;;;;;;6275057;22;20146;-60
2021/08/27 03:50:41;;;;;;;2.23;2.03;;;13.00;99.90;;;;;;6274546;22;20143;-61
2021/08/27 03:53:09;;;;;;;2.70;2.50;;;13.10;99.90;;;;;;6274744;22;20193;-60
2021/08/27 03:55:35;;;;;;;2.50;2.30;;;13.10;99.90;;;;;;6274799;22;20814;-60
2021/08/27 03:58:02;;;;;;;3.57;2.67;;;13.10;99.90;;;;;;6274890;22;20150;-60
2021/08/27 04:00:28;;;;;;;2.30;2.17;;;13.10;99.90;;;;;;6274253;22;20606;-60
2021/08/27 04:02:54;;;;;;;2.50;2.20;;;13.30;99.90;;;;;;6274357;22;20203;-60
2021/08/27 04:05:22;;;;;;;2.70;2.50;;;13.30;99.90;;;;;;6274627;22;20203;-58
2021/08/27 04:07:49;;;;;;;2.70;2.37;;;13.10;99.90;;;;;;6275089;22;20231;-61
2021/08/27 04:10:17;;;;;;;2.63;2.43;;;13.00;99.90;;;;;;6274244;22;20142;-60
2021/08/27 04:12:43;;;;;;;2.40;2.20;;;12.90;99.90;;;;;;6274728;22;20566;-60
2021/08/27 04:15:10;;;;;;;2.23;2.03;;;12.90;99.90;;;;;;6275012;22;20177;-60
2021/08/27 04:17:37;;;;;;;3.07;2.20;;;13.00;99.90;;;;;;6274685;22;20150;-59
2021/08/27 04:20:05;;;;;;;2.13;2.03;;;12.90;99.90;;;;;;6274250;22;20193;-60
2021/08/27 04:22:30;;;;;;;3.93;1.97;;;12.90;99.90;;;;;;6246615;22;20204;-57
2021/08/27 04:24:56;;;;;;;2.40;2.20;;;12.90;99.90;;;;;;6274676;22;20593;-61
2021/08/27 04:27:22;;;;;;;3.63;2.20;;;13.00;99.90;;;;;;6274485;22;20216;-60
2021/08/27 04:29:47;;;;;;;2.77;2.57;;;13.70;99.90;;;;;;6274351;22;20589;-60
2021/08/27 04:32:13;;;;;;;3.40;2.80;;;13.30;99.90;;;;;;6274362;22;20201;-61
2021/08/27 04:34:39;;;;;;;2.97;2.67;;;13.20;99.90;;;;;;6274468;22;20175;-59
2021/08/27 04:37:04;;;;;;;2.50;2.30;;;13.20;99.90;;;;;;6274287;22;20185;-59
2021/08/27 04:39:30;;;;;;;2.60;2.40;;;13.20;99.90;;;;;;6274200;22;20157;-60
2021/08/27 04:41:55;;;;;;;2.43;2.23;;;13.10;99.90;;;;;;6274197;22;20679;-56
2021/08/27 04:44:21;;;;;;;3.77;2.73;;;13.10;99.90;;;;;;6295484;22;20206;-59
2021/08/27 04:46:47;;;;;;;2.37;2.17;;;13.80;99.90;;;;;;6308331;22;20600;-60
2021/08/27 04:49:12;;;;;;;3.87;2.57;;;12.00;99.90;;;;;;6304603;22;20153;-59
2021/08/27 04:51:38;;;;;;;3.20;2.90;;;12.90;99.90;;;;;;6305107;22;20208;-59
2021/08/27 04:54:03;;;;;;;2.60;2.40;;;12.80;99.90;;;;;;6286464;22;20532;-56
2021/08/27 04:56:29;;;;;;;2.73;2.33;;;12.80;99.90;;;;;;6274244;22;20155;-59
2021/08/27 04:58:55;;;;;;;2.50;2.30;;;12.90;99.90;;;;;;6272918;22;20225;-61
2021/08/27 05:01:20;;;;;;;2.60;2.40;;;12.80;99.90;;;;;;6273823;22;20179;-58
2021/08/27 05:03:46;;;;;;;2.50;2.30;;;13.80;99.90;;;;;;6273703;22;20168;-57
2021/08/27 05:06:11;;;;;;;2.50;2.30;;;12.90;99.90;;;;;;6274174;22;20521;-59
2021/08/27 05:08:37;;;;;;;4.10;2.40;;;12.90;99.90;;;;;;6272921;22;20234;-57
2021/08/27 05:11:04;;;;;;;2.80;2.50;;;13.00;99.90;;;;;;6274011;22;20131;-61
2021/08/27 05:13:29;;;;;;;3.53;2.50;;;13.00;99.90;;;;;;6273838;22;20649;-58
2021/08/27 05:15:55;;;;;;;2.23;2.03;;;13.10;99.90;;;;;;6274197;22;20145;-61
2021/08/27 05:18:20;;;;;;;2.27;2.07;;;13.20;99.90;;;;;;6273865;22;20160;-59
2021/08/27 05:20:46;;;;;;;2.37;2.13;;;13.40;99.90;;;;;;6272907;22;20487;-60
2021/08/27 05:23:12;;;;;;;3.47;2.30;;;13.50;99.90;;;;;;6273971;22;20180;-59
2021/08/27 05:25:37;;;;;;;2.20;2.00;;;13.50;99.90;;;;;;6273818;22;20598;-60
2021/08/27 05:28:03;;;;;;;5.43;2.30;;;13.40;99.90;;;;;;6273857;22;20210;-60
2021/08/27 05:30:29;;;;;;;2.80;2.00;;;13.50;99.90;;;;;;6272792;22;20184;-61
2021/08/27 05:32:55;;;;;;;1.90;1.80;;;13.50;99.90;;;;;;6273478;22;20232;-59
2021/08/27 05:35:21;;;;;;;2.57;2.30;;;13.50;99.90;;;;;;6273461;22;20913;-60
2021/08/27 05:37:48;;;;;;;2.10;1.90;;;13.40;99.90;;;;;;6273734;22;20150;-55
2021/08/27 05:40:14;;;;;;;2.30;2.10;;;13.50;99.90;;;;;;6272682;22;20155;-61
2021/08/27 05:42:40;;;;;;;4.53;2.30;;;13.60;99.90;;;;;;6246399;22;20179;-57
2021/08/27 05:45:07;;;;;;;3.43;2.30;;;13.70;99.90;;;;;;6273340;22;20246;-61
2021/08/27 05:47:32;;;;;;;4.50;2.50;;;13.70;99.90;;;;;;6241758;22;20163;-59
2021/08/27 05:49:59;;;;;;;3.57;2.17;;;13.60;99.90;;;;;;6272957;22;20151;-61
2021/08/27 05:52:25;;;;;;;3.70;2.50;;;13.50;99.90;;;;;;6273589;22;20151;-61
2021/08/27 05:54:51;;;;;;;2.63;2.40;;;13.40;99.90;;;;;;6273683;22;20166;-60
2021/08/27 05:57:17;;;;;;;2.40;2.20;;;13.30;99.90;;;;;;6273539;22;20486;-60
2021/08/27 05:59:42;;;;;;;3.30;2.50;;;13.20;99.90;;;;;;6273418;22;20661;-60
2021/08/27 06:02:08;;;;;;;2.60;2.37;;;13.20;99.90;;;;;;6273419;22;20182;-60
2021/08/27 06:04:34;;;;;;;3.60;2.70;;;13.10;99.90;;;;;;6273400;22;20170;-59
2021/08/27 06:06:59;;;;;;;2.80;2.60;;;13.10;99.90;;;;;;6273534;22;20144;-59
2021/08/27 06:09:25;;;;;;;4.50;2.53;;;13.20;99.90;;;;;;6273337;22;20487;-58
2021/08/27 06:11:50;;;;;;;2.87;2.43;;;13.30;99.90;;;;;;6269407;22;20151;-58
2021/08/27 06:14:16;;;;;;;3.00;2.70;;;13.30;99.90;;;;;;6267640;22;20179;-58
2021/08/27 06:16:41;;;;;;;3.30;2.70;;;13.20;99.90;;;;;;6270048;22;20152;-54
2021/08/27 06:19:07;;;;;;;2.93;2.63;;;13.20;99.90;;;;;;6268627;22;20492;-56
2021/08/27 06:21:35;;;;;;;2.70;2.50;;;13.20;99.90;;;;;;6273084;22;20175;-57
2021/08/27 06:24:01;;;;;;;2.60;2.40;;;13.20;99.90;;;;;;6273313;22;20195;-57
2021/08/27 06:26:27;;;;;;;3.20;2.80;;;13.30;99.90;;;;;;6273717;22;20146;-55
2021/08/27 06:28:52;;;;;;;3.80;2.60;;;13.30;99.90;;;;;;6273204;22;20486;-55
2021/08/27 06:31:18;;;;;;;2.60;2.40;;;13.30;99.90;;;;;;6273591;22;20148;-54
2021/08/27 06:33:43;;;;;;;3.00;2.70;;;13.30;99.90;;;;;;6271786;22;20515;-56
2021/08/27 06:36:09;;;;;;;2.93;2.50;;;13.40;99.90;;;;;;6273455;22;20147;-57
2021/08/27 06:38:35;;;;;;;2.90;2.63;;;13.30;99.90;;;;;;6273481;22;20144;-55
2021/08/27 06:41:04;;;;;;;4.13;3.20;;;14.70;99.90;;;;;;6273752;22;20143;-56
2021/08/27 06:43:32;;;;;;;3.33;3.00;;;13.40;99.90;;;;;;6246481;22;20191;-57
2021/08/27 06:46:03;;;;;;;3.07;2.80;;;13.30;99.90;;;;;;6275526;22;20200;-57
2021/08/27 06:48:29;;;;;;;3.00;2.80;;;13.40;99.90;;;;;;6275483;22;20483;-56
2021/08/27 06:50:55;;;;;;;3.57;2.83;;;13.40;99.90;;;;;;6276056;22;20147;-55
2021/08/27 06:53:20;;;;;;;3.73;3.00;;;13.40;99.90;;;;;;6275392;22;20218;-57
2021/08/27 06:55:46;;;;;;;3.23;2.80;;;13.50;99.90;;;;;;6275790;22;20156;-56
2021/08/27 06:58:12;;;;;;;3.30;3.00;;;13.50;99.90;;;;;;6275437;22;20578;-56
2021/08/27 07:00:38;;;;;;;3.03;2.83;;;13.50;99.90;;;;;;6275502;22;20154;-56
2021/08/27 07:03:04;;;;;;;2.80;2.40;;;13.50;99.90;;;;;;6275487;22;20187;-58
2021/08/27 07:05:29;;;;;;;3.20;2.87;;;13.40;99.90;;;;;;6275871;22;20598;-58
2021/08/27 07:07:56;;;;;;;4.43;3.20;;;13.40;99.90;;;;;;6276041;22;20150;-57
2021/08/27 07:10:22;;;;;;;4.03;2.93;;;13.40;99.90;;;;;;6275388;22;20236;-56
2021/08/27 07:12:48;;;;;;;3.07;2.77;;;13.60;99.90;;;;;;6275489;22;20188;-57
2021/08/27 07:15:14;;;;;;;4.63;2.90;;;13.70;99.90;;;;;;6275604;22;20205;-58
2021/08/27 07:17:40;;;;;;;2.87;2.67;;;13.80;99.90;;;;;;6275391;22;20156;-56
2021/08/27 07:20:07;;;;;;;3.80;2.77;;;13.80;99.90;;;;;;6275145;22;20149;-56
2021/08/27 07:22:33;;;;;;;3.70;2.80;;;13.70;99.90;;;;;;6275647;22;20489;-57
2021/08/27 07:24:59;;;;;;;3.00;2.80;;;13.70;99.90;;;;;;6275280;22;20247;-58
2021/08/27 07:27:24;;;;;;;4.57;3.00;;;13.80;99.90;;;;;;6275259;22;20179;-55
2021/08/27 07:29:50;;;;;;;4.23;2.90;;;13.70;99.90;;;;;;6274980;22;20144;-56
2021/08/27 07:32:15;;;;;;;3.50;3.20;;;13.60;99.90;;;;;;6275231;22;20644;-55
2021/08/27 07:34:43;;;;;;;3.50;3.20;;;13.50;99.90;;;;;;6275142;22;20195;-53
2021/08/27 07:37:09;;;;;;;3.47;3.17;;;13.60;99.90;;;;;;6275443;22;20186;-56
2021/08/27 07:39:36;;;;;;;3.30;3.00;;;13.60;99.90;;;;;;6274981;22;20487;-57
2021/08/27 07:42:03;;;;;;;3.77;3.00;;;13.70;99.90;;;;;;6274952;22;20197;-56
2021/08/27 07:44:28;;;;;;;3.30;3.00;;;14.00;99.90;;;;;;6274881;22;20183;-60
2021/08/27 07:46:54;;;;;;;3.50;3.20;;;14.10;99.90;;;;;;6275033;22;20694;-56
2021/08/27 07:49:20;;;;;;;3.20;2.90;;;14.40;99.90;;;;;;6274693;22;20150;-57
2021/08/27 07:51:47;;;;;;;3.00;2.80;;;14.10;99.90;;;;;;6274995;22;20232;-55
2021/08/27 07:54:13;;;;;;;3.47;3.03;;;14.10;99.90;;;;;;6275092;22;20170;-54
2021/08/27 07:56:39;;;;;;;4.07;2.93;;;14.30;99.90;;;;;;6274201;22;20139;-56
2021/08/27 07:59:05;;;;;;;3.93;3.03;;;14.50;99.90;;;;;;6274637;22;20164;-58
2021/08/27 08:01:30;;;;;;;3.60;3.10;;;14.80;99.90;;;;;;6274803;22;20173;-56
2021/08/27 08:03:56;;;;;;;3.30;3.00;;;14.80;99.90;;;;;;6274995;22;20181;-57
2021/08/27 08:06:21;;;;;;;3.63;3.13;;;15.10;99.90;;;;;;6274868;22;20142;-58
2021/08/27 08:08:47;;;;;;;3.63;3.10;;;15.10;99.90;;;;;;6274623;22;20151;-57
2021/08/27 08:11:13;;;;;;;3.30;3.00;;;15.10;99.90;;;;;;6274886;22;20361;-59
2021/08/27 08:13:38;;;;;;;4.03;3.07;;;15.20;99.90;;;;;;6274716;22;20215;-58
2021/08/27 08:16:04;;;;;;;3.80;3.10;;;14.90;99.90;;;;;;6274925;22;20154;-59
2021/08/27 08:18:31;;;;;;;3.73;2.90;;;14.50;99.90;;;;;;6274831;22;20478;-55
2021/08/27 08:20:57;;;;;;;3.43;3.10;;;14.30;99.90;;;;;;6275281;22;20150;-59
2021/08/27 08:23:22;;;;;;;3.57;2.90;;;14.30;99.90;;;;;;6274517;22;20174;-59
2021/08/27 08:25:48;;;;;;;2.90;2.70;;;14.40;99.90;;;;;;6274831;22;20204;-59
2021/08/27 08:28:14;;;;;;;4.60;3.00;;;14.80;99.90;;;;;;6274653;22;20150;-61
2021/08/27 08:30:40;;;;;;;3.47;2.90;;;15.40;99.90;;;;;;6274327;22;20237;-58
2021/08/27 08:33:06;;;;;;;3.60;2.73;;;15.60;99.90;;;;;;6274872;22;20181;-60
2021/08/27 08:35:31;;;;;;;6.60;3.03;;;15.90;99.90;;;;;;6274532;22;20154;-58
2021/08/27 08:37:57;;;;;;;3.57;2.13;;;16.10;99.90;;;;;;6274535;22;20157;-59
2021/08/27 08:40:23;;;;;;;2.47;2.20;;;15.90;99.90;;;;;;6274371;22;20150;-60
2021/08/27 08:42:48;;;;;;;3.13;2.30;;;15.90;99.90;;;;;;6274263;22;20194;-58
2021/08/27 08:45:14;;;;;;;2.80;2.23;;;16.00;99.90;;;;;;6274443;22;20237;-58
2021/08/27 08:47:43;;;;;;;3.03;2.30;;;16.10;99.90;;;;;;6274643;22;20139;-57
2021/08/27 08:50:10;;;;;;;3.60;2.70;;;16.20;99.90;;;;;;6273960;22;20143;-59
2021/08/27 08:52:36;;;;;;;2.57;2.20;;;16.20;99.90;;;;;;6274575;22;20158;-57
2021/08/27 08:55:04;;;;;;;2.60;2.40;;;16.10;99.90;;;;;;6274292;22;20166;-59
2021/08/27 08:57:29;;;;;;;3.17;2.60;;;16.00;99.90;;;;;;6273111;22;20146;-55
2021/08/27 08:59:55;;;;;;;3.17;2.47;;;15.80;99.90;;;;;;6273294;22;20154;-58
2021/08/27 09:02:22;;;;;;;3.63;2.57;;;15.70;99.90;;;;;;6270028;22;20193;-60
2021/08/27 09:04:47;;;;;;;2.80;2.50;;;15.70;99.90;;;;;;6273759;22;20170;-59
2021/08/27 09:07:14;;;;;;;3.60;2.53;;;15.80;99.90;;;;;;6274147;22;20225;-57
2021/08/27 09:09:40;;;;;;;3.20;2.60;;;15.60;99.90;;;;;;6273685;22;20149;-57
2021/08/27 09:12:26;;;;;;;8.37;2.80;;;15.30;99.90;;;;;;6274371;22;20146;-56
2021/08/27 09:15:01;;;;;;;3.77;2.60;;;15.20;99.90;;;;;;6274476;22;20517;-58
2021/08/27 09:17:41;;;;;;;3.77;2.90;;;15.20;99.90;;;;;;6274121;22;20165;-56
2021/08/27 09:20:10;;;;;;;3.30;3.00;;;15.20;99.90;;;;;;6273800;22;20145;-61
2021/08/27 09:22:54;;;;;;;3.47;2.60;;;15.10;99.90;;;;;;6273447;22;20178;-58
2021/08/27 09:25:25;;;;;;;3.17;2.57;;;15.20;99.90;;;;;;6274591;22;20159;-55
2021/08/27 09:28:09;;;;;;;3.00;2.70;;;15.20;99.90;;;;;;6274191;22;20146;-54
2021/08/27 09:30:50;;;;;;;3.37;2.70;;;15.20;99.90;;;;;;6273719;22;20143;-59
2021/08/27 09:33:21;;;;;;;3.30;3.00;;;15.30;99.90;;;;;;6274090;22;20239;-58
2021/08/27 09:36:06;;;;;;;3.70;3.10;;;15.70;99.90;;;;;;6273812;22;20443;-58
2021/08/27 09:38:38;;;;;;;4.23;3.33;;;16.00;99.90;;;;;;6273493;22;20138;-58
2021/08/27 09:41:11;;;;;;;4.63;3.33;;;16.20;99.90;;;;;;6273857;22;20154;-57
2021/08/27 09:43:46;;;;;;;4.00;3.53;;;16.20;99.90;;;;;;6273556;22;20546;-58
2021/08/27 09:46:41;;;;;;;3.27;2.80;;;16.80;99.90;;;;;;6273997;22;20152;-58
2021/08/27 09:49:25;;;;;;;2.97;1.97;;;16.80;99.90;;;;;;6273679;22;20135;-55
2021/08/27 09:51:51;;;;;;;3.23;2.00;;;16.50;99.90;;;;;;6272750;22;20146;-56
2021/08/27 09:54:22;;;;;;;2.03;1.90;;;16.30;99.90;;;;;;6272599;22;20176;-53
2021/08/27 09:56:51;;;;;;;2.57;1.80;;;16.30;99.90;;;;;;6271886;22;20157;-55
2021/08/27 09:59:17;;;;;;;3.93;1.83;;;16.30;99.90;;;;;;6271944;22;20150;-56
2021/08/27 10:01:49;;;;;;;3.20;1.77;;;16.30;99.90;;;;;;6273251;22;20170;-58
2021/08/27 10:04:16;;;;;;;1.83;1.50;;;16.20;99.90;;;;;;6273429;22;20179;-60
2021/08/27 10:06:43;;;;;;;4.33;1.90;;;16.10;99.90;;;;;;6273717;22;20175;-54
2021/08/27 10:09:09;;;;;;;3.73;2.20;;;16.20;99.90;;;;;;6273152;22;20152;-56
2021/08/27 10:11:36;;;;;;;2.83;2.33;;;16.40;99.90;;;;;;6273293;22;20144;-57
2021/08/27 10:14:02;;;;;;;5.13;2.30;;;16.40;99.90;;;;;;6273028;22;20167;-55
2021/08/27 10:16:29;;;;;;;2.37;1.83;;;16.40;99.90;;;;;;6273062;22;20202;-53
2021/08/27 10:18:56;;;;;;;4.27;1.67;;;16.20;99.90;;;;;;6273282;22;20162;-56
2021/08/27 10:21:21;;;;;;;1.67;1.57;;;16.20;99.90;;;;;;6273545;22;20151;-56
2021/08/27 10:23:47;;;;;;;2.00;1.80;;;16.30;99.90;;;;;;6272302;22;20319;-55
2021/08/27 10:26:22;;;;;;;1.93;1.47;;;16.60;99.90;;;;;;6273814;22;20147;-57
2021/08/27 10:28:48;;;;;;;5.20;1.70;;;16.80;99.90;;;;;;6273215;22;20133;-57
2021/08/27 10:31:15;;;;;;;2.33;1.60;;;17.10;99.90;;;;;;6273656;22;20169;-53
2021/08/27 10:33:41;;;;;;;1.90;1.60;;;17.40;99.90;;;;;;6272196;22;20240;-59
2021/08/27 10:36:12;;;;;;;2.93;1.70;;;17.50;99.90;;;;;;6273300;22;20622;-57
2021/08/27 10:38:43;;;;;;;2.90;2.00;;;17.40;99.90;;;;;;6273661;22;20220;-57
2021/08/27 10:41:11;;;;;;;2.07;1.77;;;17.50;99.90;;;;;;6273503;22;20150;-55
2021/08/27 10:43:49;;;;;;;2.90;1.60;;;17.30;99.90;;;;;;6273078;22;20200;-58
2021/08/27 10:46:15;;;;;;;2.20;1.30;;;17.50;99.90;;;;;;6286050;22;20200;-59
2021/08/27 10:48:49;;;;;;;1.87;1.50;;;17.70;99.90;;;;;;6303030;22;20177;-58
2021/08/27 10:51:33;;;;;;;3.17;1.40;;;18.00;99.90;;;;;;6303073;22;20148;-56
2021/08/27 10:53:59;;;;;;;1.90;1.43;;;18.30;99.90;;;;;;6304060;22;20145;-53
2021/08/27 10:56:49;;;;;;;4.33;1.00;;;19.10;99.90;;;;;;6287140;22;20253;-54
2021/08/27 10:59:15;;;;;;;1.80;1.13;;;17.90;99.90;;;;;;6273630;22;20146;-52
2021/08/27 11:01:42;;;;;;;1.97;1.10;;;17.60;99.90;;;;;;6273335;22;20176;-53
2021/08/27 11:04:23;;;;;;;2.60;1.40;;;17.70;99.90;;;;;;6273299;22;20207;-57
2021/08/27 11:07:12;;;;;;;1.37;1.23;;;17.80;99.90;;;;;;6273391;22;20465;-56
2021/08/27 11:09:38;;;;;;;1.93;1.53;;;17.90;99.90;;;;;;6273145;22;20142;-57
2021/08/27 11:12:22;;;;;;;3.47;1.90;;;18.00;99.90;;;;;;6273491;22;20177;-54
2021/08/27 11:14:55;;;;;;;1.80;1.70;;;18.20;99.90;;;;;;6273524;22;20134;-56
2021/08/27 11:17:21;;;;;;;3.53;2.60;;;18.40;99.90;;;;;;6271708;22;20170;-56
2021/08/27 11:19:57;;;;;;;4.93;2.90;;;18.60;99.90;;;;;;6273016;22;20966;-57
2021/08/27 11:22:23;;;;;;;5.30;3.50;;;19.00;99.90;;;;;;6272763;22;20158;-59
2021/08/27 11:25:15;;;;;;;4.37;3.50;;;18.90;99.90;;;;;;6273154;22;20521;-55
2021/08/27 11:28:08;;;;;;;4.80;3.13;;;19.00;99.90;;;;;;6273316;22;20178;-56
2021/08/27 11:30:35;;;;;;;1.80;1.30;;;19.40;99.90;;;;;;6273311;22;20150;-58
2021/08/27 11:33:01;;;;;;;1.48;1.20;;;19.80;99.90;;;;;;6275104;22;20631;-61
2021/08/27 11:35:30;;;;;;;2.33;1.30;;;19.80;99.90;;;;;;6275551;22;20220;-60
2021/08/27 11:37:55;;;;;;;2.20;1.27;;;19.20;99.90;;;;;;6274927;22;20157;-57
2021/08/27 11:40:21;;;;;;;1.08;0.90;;;19.40;99.90;;;;;;6274828;22;20154;-59
2021/08/27 11:42:47;;;;;;;3.22;1.30;;;19.70;99.90;;;;;;6273421;22;20172;-57
2021/08/27 11:45:18;;;;;;;2.03;0.77;;;20.30;99.90;;;;;;6274426;22;20248;-60
2021/08/27 11:47:52;;;;;;;1.98;0.90;;;20.70;99.90;;;;;;6274983;22;20216;-58
2021/08/27 11:50:23;;;;;;;1.10;0.90;;;20.60;99.90;;;;;;6273336;22;20149;-59
2021/08/27 11:52:51;;;;;;;1.58;0.85;;;20.50;99.90;;;;;;6268089;22;20149;-60
2021/08/27 11:55:17;;;;;;;0.95;0.70;;;20.10;99.90;;;;;;6274497;22;20150;-56
2021/08/27 11:57:57;;;;;;;1.17;1.07;;;19.60;99.90;;;;;;6274509;22;20170;-58
2021/08/27 12:00:34;;;;;;;1.97;1.37;;;18.80;99.90;;;;;;6273848;22;20203;-58
2021/08/27 12:03:00;;;;;;;1.97;1.20;;;18.10;99.90;;;;;;6274382;22;20172;-56
2021/08/27 12:05:28;;;;;;;2.93;1.07;;;17.70;99.90;;;;;;6274115;22;20170;-51
2021/08/27 12:07:54;;;;;;;1.70;0.93;;;17.40;99.90;;;;;;6274356;22;20143;-60
2021/08/27 12:10:21;;;;;;;1.20;1.10;;;17.20;99.90;;;;;;6273544;22;20157;-55
2021/08/27 12:12:48;;;;;;;1.37;0.97;;;17.30;99.90;;;;;;6274323;22;20153;-59
2021/08/27 12:15:18;;;;;;;1.07;0.97;;;17.50;99.90;;;;;;6268523;22;20150;-59
2021/08/27 12:17:52;;;;;;;1.10;1.00;;;17.60;99.90;;;;;;6273986;22;20153;-55
2021/08/27 12:20:18;;;;;;;0.80;0.63;;;17.50;99.90;;;;;;6273863;22;20203;-59
2021/08/27 12:22:45;;;;;;;1.10;0.87;;;17.70;99.90;;;;;;6273767;22;20211;-52
2021/08/27 12:25:30;;;;;;;1.07;0.80;;;17.70;99.90;;;;;;6274663;22;20157;-55
2021/08/27 12:27:57;;;;;;;1.60;0.60;;;17.50;99.90;;;;;;6274393;22;20134;-59
2021/08/27 12:30:24;;;;;;;0.70;0.70;;;17.50;99.90;;;;;;6274027;22;20149;-58
2021/08/27 12:32:51;;;;;;;1.60;0.73;;;17.30;99.90;;;;;;6274248;22;20195;-59
2021/08/27 12:35:20;;;;;;;0.60;0.60;;;17.00;99.90;;;;;;6274407;22;20235;-58
2021/08/27 12:37:48;;;;;;;0.60;0.60;;;17.00;99.90;;;;;;6274561;22;20199;-53
2021/08/27 12:40:18;;;;;;;0.70;0.67;;;16.90;99.90;;;;;;6274354;22;20146;-55
2021/08/27 12:43:04;;;;;;;2.10;0.73;;;16.60;99.90;;;;;;6273753;22;20645;-57
2021/08/27 12:45:55;;;;;;;1.33;1.00;;;16.50;99.90;;;;;;6274300;22;20180;-57
2021/08/27 12:48:22;;;;;;;1.10;1.00;;;16.50;99.90;;;;;;6274395;22;20707;-60
2021/08/27 12:50:58;;;;;;;2.17;1.40;;;16.50;99.90;;;;;;6274076;22;20254;-51
2021/08/27 12:53:27;;;;;;;1.53;1.40;;;16.60;99.90;;;;;;6274426;22;20610;-55
2021/08/27 12:56:13;;;;;;;1.47;1.17;;;16.60;99.90;;;;;;6274383;22;20169;-55